createdAt,value
2023-05-06T00:00:25.018Z,29.90
2023-05-06T00:02:56.714Z,29.96
2023-05-06T00:05:26.817Z,30.05
2023-05-06T00:07:57.322Z,30.13
2023-05-06T00:10:27.467Z,30.19
2023-05-06T00:12:57.738Z,30.23
2023-05-06T00:15:29.169Z,30.33
2023-05-06T00:18:00.807Z,30.42
2023-05-06T00:20:31.453Z,30.50
2023-05-06T00:23:01.976Z,30.58
2023-05-06T00:25:32.655Z,30.65
2023-05-06T00:28:02.851Z,30.71
2023-05-06T00:30:33.091Z,30.76
2023-05-06T00:33:03.257Z,30.81
2023-05-06T00:35:33.834Z,30.80
2023-05-06T00:38:14.260Z,30.80
2023-05-06T00:40:45.662Z,30.83
2023-05-06T00:43:15.781Z,30.86
2023-05-06T00:45:47.391Z,30.88
2023-05-06T00:48:18.115Z,30.67
2023-05-06T00:50:48.789Z,30.95
2023-05-06T00:53:20.993Z,31.04
2023-05-06T00:55:52.642Z,31.12
2023-05-06T00:58:22.958Z,31.09
2023-05-06T01:00:53.696Z,31.10
2023-05-06T01:03:24.298Z,31.14
2023-05-06T01:06:00.665Z,31.19
2023-05-06T01:08:33.778Z,31.61
2023-05-06T01:11:26.220Z,31.74
2023-05-06T01:13:59.674Z,31.83
2023-05-06T01:16:32.295Z,31.84
2023-05-06T01:19:03.054Z,31.89
2023-05-06T01:21:36.130Z,31.92
2023-05-06T01:24:06.400Z,31.93
2023-05-06T01:26:36.504Z,31.96
2023-05-06T01:29:06.701Z,31.98
2023-05-06T01:31:44.087Z,32.02
2023-05-06T01:34:28.640Z,32.07
2023-05-06T01:37:01.947Z,32.12
2023-05-06T01:39:32.727Z,32.13
2023-05-06T01:42:04.327Z,32.16
2023-05-06T01:44:36.123Z,32.20
2023-05-06T01:47:07.409Z,32.24
2023-05-06T01:49:37.861Z,32.26
2023-05-06T01:52:08.096Z,32.27
2023-05-06T01:54:38.551Z,32.37
2023-05-06T01:57:08.715Z,32.13
2023-05-06T01:59:38.968Z,32.10
2023-05-06T02:02:09.693Z,32.10
2023-05-06T02:04:40.409Z,32.12
2023-05-06T02:07:11.318Z,32.16
2023-05-06T02:09:42.164Z,32.18
2023-05-06T02:12:12.910Z,32.20
2023-05-06T02:14:44.200Z,32.24
2023-05-06T02:17:14.630Z,32.26
2023-05-06T02:19:44.978Z,32.29
2023-05-06T02:22:15.291Z,32.32
2023-05-06T02:24:45.444Z,32.35
2023-05-06T02:27:16.189Z,32.38
2023-05-06T02:29:46.380Z,32.40
2023-05-06T02:32:16.468Z,32.43
2023-05-06T02:34:46.812Z,32.46
2023-05-06T02:37:17.016Z,32.47
2023-05-06T02:39:47.292Z,32.52
2023-05-06T02:42:17.802Z,32.54
2023-05-06T02:44:48.264Z,32.57
2023-05-06T02:47:18.001Z,32.60
2023-05-06T02:49:48.169Z,32.62
2023-05-06T02:52:18.008Z,32.65
2023-05-06T02:54:47.739Z,32.67
2023-05-06T02:57:17.466Z,32.69
2023-05-06T02:59:47.491Z,32.72
2023-05-06T03:02:17.209Z,32.75
2023-05-06T03:04:47.009Z,32.78
2023-05-06T03:07:17.761Z,32.79
2023-05-06T03:09:47.762Z,32.82
2023-05-06T03:12:17.645Z,32.84
2023-05-06T03:14:47.701Z,32.85
2023-05-06T03:17:17.465Z,32.89
2023-05-06T03:19:47.298Z,32.90
2023-05-06T03:22:17.045Z,32.92
2023-05-06T03:24:48.535Z,32.92
2023-05-06T03:27:19.684Z,32.94
2023-05-06T03:29:53.677Z,32.93
2023-05-06T03:32:25.661Z,32.96
2023-05-06T03:34:55.663Z,32.97
2023-05-06T03:37:25.573Z,32.98
2023-05-06T03:39:59.151Z,32.98
2023-05-06T03:42:29.822Z,32.97
2023-05-06T03:45:00.893Z,33.00
2023-05-06T03:47:34.090Z,32.98
2023-05-06T03:50:05.952Z,32.51
2023-05-06T03:52:37.432Z,32.91
2023-05-06T03:55:08.689Z,32.91
2023-05-06T03:57:40.214Z,32.89
2023-05-06T04:00:11.543Z,32.88
2023-05-06T04:02:49.342Z,32.90
2023-05-06T04:05:25.506Z,32.90
2023-05-06T04:07:56.451Z,32.91
2023-05-06T04:10:26.226Z,32.94
2023-05-06T04:13:00.727Z,32.98
2023-05-06T04:15:38.651Z,32.99
2023-05-06T04:18:11.817Z,32.99
2023-05-06T04:20:44.893Z,33.03
2023-05-06T04:23:15.469Z,33.05
2023-05-06T04:25:52.192Z,33.07
2023-05-06T04:28:24.725Z,33.11
2023-05-06T04:30:56.094Z,33.12
2023-05-06T04:33:32.500Z,33.16
2023-05-06T04:36:04.427Z,33.17
2023-05-06T04:38:36.766Z,33.20
2023-05-06T04:41:07.605Z,33.22
2023-05-06T04:43:37.588Z,33.22
2023-05-06T04:46:13.962Z,33.11
2023-05-06T04:48:45.645Z,33.32
2023-05-06T04:51:17.159Z,33.39
2023-05-06T04:53:47.793Z,33.46
2023-05-06T04:56:17.545Z,33.49
2023-05-06T04:58:48.346Z,33.54
2023-05-06T05:01:20.206Z,33.58
2023-05-06T05:03:50.524Z,33.62
2023-05-06T05:06:22.854Z,33.63
2023-05-06T05:08:53.838Z,33.67
2023-05-06T05:11:26.748Z,33.70
2023-05-06T05:13:58.860Z,33.71
2023-05-06T05:16:30.237Z,33.67
2023-05-06T05:19:03.020Z,33.52
2023-05-06T05:21:35.311Z,33.21
2023-05-06T05:24:06.605Z,33.00
2023-05-06T05:26:37.009Z,32.75
2023-05-06T05:29:07.648Z,32.55
2023-05-06T05:31:38.327Z,32.39
2023-05-06T05:34:08.743Z,32.21
2023-05-06T05:36:39.444Z,32.07
2023-05-06T05:39:12.543Z,31.93
2023-05-06T05:41:47.023Z,31.78
2023-05-06T05:44:17.140Z,31.70
2023-05-06T05:46:47.296Z,31.63
2023-05-06T05:49:20.291Z,31.57
2023-05-06T05:51:52.713Z,31.52
2023-05-06T05:54:24.284Z,31.31
2023-05-06T05:56:54.081Z,31.25
2023-05-06T05:59:24.578Z,31.25
2023-05-06T06:01:56.718Z,31.24
2023-05-06T06:04:28.152Z,31.23
2023-05-06T06:07:02.882Z,31.23
2023-05-06T06:09:37.032Z,31.22
2023-05-06T06:12:07.700Z,31.23
2023-05-06T06:14:41.458Z,31.22
2023-05-06T06:17:12.492Z,31.24
2023-05-06T06:19:42.447Z,31.25
2023-05-06T06:22:12.256Z,31.27
2023-05-06T06:24:42.099Z,31.26
2023-05-06T06:27:11.965Z,31.24
2023-05-06T06:29:41.804Z,31.26
2023-05-06T06:32:11.723Z,31.22
2023-05-06T06:34:42.299Z,31.25
2023-05-06T06:37:12.607Z,31.27
2023-05-06T06:39:42.521Z,31.30
2023-05-06T06:42:12.385Z,31.29
2023-05-06T06:44:57.779Z,31.33
2023-05-06T06:47:27.581Z,31.36
2023-05-06T06:49:57.437Z,31.40
2023-05-06T06:52:27.697Z,31.41
2023-05-06T06:54:57.359Z,31.46
2023-05-06T06:57:27.128Z,31.44
2023-05-06T06:59:57.042Z,31.46
2023-05-06T07:02:27.183Z,31.50
2023-05-06T07:04:56.973Z,31.44
2023-05-06T07:07:26.695Z,31.45
2023-05-06T07:09:56.562Z,31.47
2023-05-06T07:12:27.742Z,31.45
2023-05-06T07:14:57.714Z,31.44
2023-05-06T07:17:27.366Z,31.45
2023-05-06T07:19:57.131Z,31.46
2023-05-06T07:22:27.310Z,31.50
2023-05-06T07:24:57.103Z,31.49
2023-05-06T07:27:28.375Z,31.54
2023-05-06T07:29:58.603Z,31.53
2023-05-06T07:32:28.316Z,31.51
2023-05-06T07:34:58.194Z,31.52
2023-05-06T07:37:28.002Z,31.53
2023-05-06T07:39:58.755Z,31.53
2023-05-06T07:42:28.584Z,31.55
2023-05-06T07:44:58.714Z,31.55
2023-05-06T07:47:32.974Z,31.56
2023-05-06T07:50:02.868Z,31.53
2023-05-06T07:52:32.701Z,31.57
2023-05-06T07:55:02.878Z,31.56
2023-05-06T07:57:32.551Z,31.51
2023-05-06T08:00:02.259Z,31.56
2023-05-06T08:02:45.320Z,31.54
2023-05-06T08:05:15.732Z,31.58
2023-05-06T08:07:45.496Z,31.58
2023-05-06T08:10:15.274Z,31.65
2023-05-06T08:12:45.760Z,31.62
2023-05-06T08:15:15.506Z,31.67
2023-05-06T08:17:45.786Z,31.62
2023-05-06T08:20:15.811Z,31.65
2023-05-06T08:22:45.537Z,31.66
2023-05-06T08:25:15.201Z,31.67
2023-05-06T08:27:44.924Z,31.66
2023-05-06T08:30:14.933Z,31.66
2023-05-06T08:32:44.740Z,31.66
2023-05-06T08:35:14.865Z,31.65
2023-05-06T08:37:44.816Z,31.63
2023-05-06T08:40:20.270Z,31.67
2023-05-06T08:42:51.016Z,31.69
2023-05-06T08:45:21.053Z,31.75
2023-05-06T08:47:51.019Z,31.78
2023-05-06T08:50:20.754Z,31.79
2023-05-06T08:52:50.536Z,31.80
2023-05-06T08:55:20.777Z,31.77
2023-05-06T08:57:51.829Z,31.79
2023-05-06T09:00:21.844Z,31.84
2023-05-06T09:02:52.044Z,31.90
2023-05-06T09:05:22.010Z,32.15
2023-05-06T09:07:51.772Z,32.40
2023-05-06T09:10:21.895Z,32.64
2023-05-06T09:12:54.802Z,32.85
2023-05-06T09:15:28.236Z,33.13
2023-05-06T09:17:58.008Z,33.44
2023-05-06T09:20:27.955Z,33.61
2023-05-06T09:22:57.784Z,33.83
2023-05-06T09:25:27.544Z,34.03
2023-05-06T09:28:10.433Z,34.15
2023-05-06T09:30:42.310Z,34.26
2023-05-06T09:33:12.932Z,34.30
2023-05-06T09:35:44.370Z,34.38
2023-05-06T09:38:14.478Z,34.45
2023-05-06T09:40:44.845Z,34.53
2023-05-06T09:43:17.031Z,34.61
2023-05-06T09:45:47.714Z,34.66
2023-05-06T09:48:18.117Z,34.73
2023-05-06T09:50:49.298Z,34.78
2023-05-06T09:53:20.716Z,34.78
2023-05-06T09:55:51.284Z,34.82
2023-05-06T09:58:24.359Z,34.84
2023-05-06T10:00:54.745Z,34.87
2023-05-06T10:03:26.250Z,34.86
2023-05-06T10:05:58.543Z,34.86
2023-05-06T10:08:28.899Z,34.84
2023-05-06T10:11:00.277Z,34.81
2023-05-06T10:13:31.476Z,34.79
2023-05-06T10:16:03.830Z,34.78
2023-05-06T10:18:34.167Z,34.79
2023-05-06T10:21:05.468Z,34.83
2023-05-06T10:23:40.774Z,34.81
2023-05-06T10:26:13.061Z,34.89
2023-05-06T10:28:44.137Z,34.97
2023-05-06T10:31:15.163Z,35.02
2023-05-06T10:33:47.770Z,35.08
2023-05-06T10:36:17.989Z,35.14
2023-05-06T10:38:50.670Z,35.18
2023-05-06T10:41:22.626Z,35.21
2023-05-06T10:43:57.898Z,35.23
2023-05-06T10:46:29.413Z,35.26
2023-05-06T10:49:12.343Z,35.25
2023-05-06T10:52:13.402Z,35.29
2023-05-06T10:54:51.589Z,35.31
2023-05-06T10:57:28.154Z,35.31
2023-05-06T10:59:58.274Z,35.32
2023-05-06T11:02:32.289Z,35.32
2023-05-06T11:05:03.410Z,35.33
2023-05-06T11:07:33.572Z,35.33
2023-05-06T11:10:06.551Z,35.33
2023-05-06T11:12:57.131Z,35.32
2023-05-06T11:15:41.343Z,35.33
2023-05-06T11:18:26.548Z,35.31
2023-05-06T11:21:03.817Z,35.27
2023-05-06T11:23:53.504Z,35.26
2023-05-06T11:26:23.531Z,35.26
2023-05-06T11:28:53.656Z,35.24
2023-05-06T11:31:23.929Z,35.18
2023-05-06T11:33:55.782Z,35.08
2023-05-06T11:36:25.775Z,34.88
2023-05-06T11:38:57.597Z,34.62
2023-05-06T11:41:27.734Z,34.31
2023-05-06T11:43:57.894Z,33.91
2023-05-06T11:46:31.228Z,33.76
2023-05-06T11:49:02.041Z,33.54
2023-05-06T11:51:33.928Z,33.34
2023-05-06T11:54:08.388Z,33.15
2023-05-06T11:56:48.386Z,32.98
2023-05-06T11:59:19.993Z,32.83
2023-05-06T12:01:50.543Z,32.66
2023-05-06T12:04:20.640Z,32.55
2023-05-06T12:06:50.817Z,32.42
2023-05-06T12:09:23.547Z,32.33
2023-05-06T12:11:54.234Z,32.23
2023-05-06T12:14:24.631Z,32.14
2023-05-06T12:16:56.117Z,32.02
2023-05-06T12:19:26.288Z,31.95
2023-05-06T12:21:57.092Z,31.90
2023-05-06T12:24:33.026Z,31.87
2023-05-06T12:27:03.043Z,31.80
2023-05-06T12:29:33.865Z,31.76
2023-05-06T12:32:11.201Z,31.71
2023-05-06T12:34:42.110Z,31.66
2023-05-06T12:37:12.241Z,31.65
2023-05-06T12:39:42.815Z,31.58
2023-05-06T12:42:24.416Z,31.54
2023-05-06T12:44:54.855Z,31.28
2023-05-06T12:47:26.138Z,31.42
2023-05-06T12:50:00.193Z,31.34
2023-05-06T12:52:31.332Z,31.27
2023-05-06T12:55:02.566Z,31.23
2023-05-06T12:57:32.650Z,31.19
2023-05-06T13:00:02.731Z,31.12
2023-05-06T13:02:33.067Z,31.08
2023-05-06T13:05:03.551Z,31.04
2023-05-06T13:07:33.579Z,31.06
2023-05-06T13:10:04.876Z,31.06
2023-05-06T13:12:34.997Z,31.05
2023-05-06T13:15:05.819Z,31.13
2023-05-06T13:17:35.892Z,31.16
2023-05-06T13:20:06.607Z,31.14
2023-05-06T13:22:50.733Z,31.12
2023-05-06T13:25:23.758Z,31.06
2023-05-06T13:27:54.328Z,31.05
2023-05-06T13:30:24.391Z,31.05
2023-05-06T13:32:54.440Z,31.02
2023-05-06T13:35:24.450Z,30.98
2023-05-06T13:37:54.562Z,30.96
2023-05-06T13:40:24.933Z,30.92
2023-05-06T13:42:57.818Z,30.90
2023-05-06T13:45:27.878Z,30.92
2023-05-06T13:47:57.976Z,30.99
2023-05-06T13:50:28.221Z,31.03
2023-05-06T13:52:58.349Z,30.97
2023-05-06T13:55:28.686Z,30.90
2023-05-06T13:57:58.736Z,30.88
2023-05-06T14:00:29.060Z,30.88
2023-05-06T14:02:59.178Z,30.91
2023-05-06T14:05:29.636Z,30.91
2023-05-06T14:08:00.085Z,30.98
2023-05-06T14:10:30.441Z,30.96
2023-05-06T14:13:00.778Z,30.98
2023-05-06T14:15:31.255Z,30.95
2023-05-06T14:18:01.381Z,30.90
2023-05-06T14:20:31.938Z,30.86
2023-05-06T14:23:02.025Z,30.82
2023-05-06T14:25:32.498Z,30.78
2023-05-06T14:28:02.775Z,30.71
2023-05-06T14:30:33.717Z,30.64
2023-05-06T14:33:03.835Z,30.70
2023-05-06T14:35:33.956Z,30.66
2023-05-06T14:38:04.710Z,30.56
2023-05-06T14:40:35.075Z,30.47
2023-05-06T14:43:05.500Z,30.31
2023-05-06T14:45:35.580Z,30.22
2023-05-06T14:48:06.119Z,29.95
2023-05-06T14:50:36.304Z,30.04
2023-05-06T14:53:06.555Z,30.01
2023-05-06T14:55:37.045Z,29.97
2023-05-06T14:58:07.281Z,29.92
2023-05-06T15:00:37.482Z,29.88
2023-05-06T15:03:08.112Z,29.78
2023-05-06T15:05:38.719Z,29.73
2023-05-06T15:08:09.042Z,29.63
2023-05-06T15:10:39.193Z,29.60
2023-05-06T15:13:09.607Z,29.56
2023-05-06T15:15:39.582Z,29.49
2023-05-06T15:18:09.654Z,29.44
2023-05-06T15:20:39.747Z,29.35
2023-05-06T15:23:09.761Z,29.31
2023-05-06T15:25:41.099Z,29.24
2023-05-06T15:28:11.403Z,29.19
2023-05-06T15:30:41.450Z,29.13
2023-05-06T15:33:11.537Z,29.12
2023-05-06T15:35:41.694Z,29.10
2023-05-06T15:38:12.353Z,29.14
2023-05-06T15:40:42.469Z,29.15
2023-05-06T15:43:17.732Z,29.21
2023-05-06T15:45:52.805Z,29.21
2023-05-06T15:48:23.536Z,29.27
2023-05-06T15:50:53.580Z,29.27
2023-05-06T15:53:23.592Z,29.30
2023-05-06T15:55:57.319Z,29.31
2023-05-06T15:58:35.775Z,29.31
2023-05-06T16:01:06.239Z,29.35
2023-05-06T16:03:37.755Z,29.39
2023-05-06T16:06:08.999Z,29.43
2023-05-06T16:08:40.133Z,29.42
2023-05-06T16:11:10.908Z,29.42
2023-05-06T16:13:41.669Z,29.41
2023-05-06T16:16:12.010Z,29.39
2023-05-06T16:18:42.202Z,29.43
2023-05-06T16:21:15.651Z,29.39
2023-05-06T16:23:45.680Z,29.42
2023-05-06T16:26:16.202Z,29.38
2023-05-06T16:28:46.368Z,29.35
2023-05-06T16:31:16.640Z,29.33
2023-05-06T16:33:46.822Z,29.31
2023-05-06T16:36:17.220Z,29.34
2023-05-06T16:38:47.901Z,29.32
2023-05-06T16:41:18.150Z,29.30
2023-05-06T16:43:48.422Z,29.29
2023-05-06T16:46:18.664Z,29.26
2023-05-06T16:48:49.052Z,29.19
2023-05-06T16:51:19.300Z,29.23
2023-05-06T16:53:49.840Z,29.26
2023-05-06T16:56:20.401Z,29.19
2023-05-06T16:58:50.652Z,29.19
2023-05-06T17:01:23.734Z,29.16
2023-05-06T17:03:54.018Z,29.17
2023-05-06T17:06:29.120Z,29.17
2023-05-06T17:09:02.408Z,29.13
2023-05-06T17:11:32.586Z,29.12
2023-05-06T17:14:02.753Z,29.13
2023-05-06T17:16:32.854Z,29.09
2023-05-06T17:19:02.896Z,29.07
2023-05-06T17:21:33.034Z,29.04
2023-05-06T17:24:03.258Z,29.04
2023-05-06T17:26:34.575Z,29.00
2023-05-06T17:29:05.403Z,29.05
2023-05-06T17:31:35.447Z,29.04
2023-05-06T17:34:05.523Z,29.00
2023-05-06T17:36:35.608Z,28.98
2023-05-06T17:39:07.231Z,28.96
2023-05-06T17:41:40.589Z,28.96
2023-05-06T17:44:10.806Z,28.95
2023-05-06T17:46:40.995Z,28.91
2023-05-06T17:49:11.918Z,28.89
2023-05-06T17:51:43.857Z,28.88
2023-05-06T17:54:14.411Z,28.88
2023-05-06T17:56:59.688Z,28.86
2023-05-06T17:59:30.528Z,28.86
2023-05-06T18:02:01.596Z,28.83
2023-05-06T18:04:31.717Z,28.80
2023-05-06T18:07:01.824Z,28.79
2023-05-06T18:09:33.685Z,28.79
2023-05-06T18:12:04.012Z,28.79
2023-05-06T18:14:34.629Z,28.78
2023-05-06T18:17:04.753Z,28.76
2023-05-06T18:19:35.261Z,28.76
2023-05-06T18:22:05.284Z,28.72
2023-05-06T18:24:36.048Z,28.71
2023-05-06T18:27:12.121Z,28.70
2023-05-06T18:29:42.626Z,28.66
2023-05-06T18:32:12.705Z,28.67
2023-05-06T18:34:43.030Z,28.61
2023-05-06T18:37:13.101Z,28.63
2023-05-06T18:39:43.994Z,28.60
2023-05-06T18:42:14.023Z,28.58
2023-05-06T18:44:44.323Z,28.57
2023-05-06T18:47:14.479Z,28.54
2023-05-06T18:49:44.596Z,28.52
2023-05-06T18:52:16.237Z,28.52
2023-05-06T18:54:47.632Z,28.50
2023-05-06T18:57:17.752Z,28.48
2023-05-06T18:59:48.403Z,28.44
2023-05-06T19:02:18.587Z,28.43
2023-05-06T19:04:48.555Z,28.40
2023-05-06T19:07:18.616Z,28.42
2023-05-06T19:09:48.831Z,28.40
2023-05-06T19:12:19.686Z,28.39
2023-05-06T19:14:49.845Z,28.36
2023-05-06T19:17:20.200Z,28.37
2023-05-06T19:19:50.457Z,28.36
2023-05-06T19:22:20.425Z,28.34
2023-05-06T19:24:50.499Z,28.33
2023-05-06T19:27:20.442Z,28.35
2023-05-06T19:29:50.408Z,28.34
2023-05-06T19:32:20.605Z,28.34
2023-05-06T19:34:50.677Z,28.32
2023-05-06T19:37:20.764Z,28.31
2023-05-06T19:39:50.930Z,28.27
2023-05-06T19:42:20.897Z,28.33
2023-05-06T19:44:51.049Z,28.29
2023-05-06T19:47:21.106Z,28.28
2023-05-06T19:49:52.651Z,28.28
2023-05-06T19:52:22.703Z,28.27
2023-05-06T19:54:53.791Z,28.28
2023-05-06T19:57:24.627Z,28.28
2023-05-06T19:59:55.653Z,28.23
2023-05-06T20:02:25.821Z,28.25
2023-05-06T20:04:55.921Z,28.21
2023-05-06T20:07:26.302Z,28.20
2023-05-06T20:09:57.219Z,28.22
2023-05-06T20:12:31.467Z,28.19
2023-05-06T20:15:01.644Z,28.19
2023-05-06T20:17:31.811Z,28.17
2023-05-06T20:20:04.174Z,28.17
2023-05-06T20:22:34.902Z,28.16
2023-05-06T20:25:11.021Z,28.16
2023-05-06T20:27:41.427Z,28.15
2023-05-06T20:30:11.932Z,28.12
2023-05-06T20:32:42.295Z,28.12
2023-05-06T20:35:13.478Z,28.09
2023-05-06T20:37:43.888Z,28.10
2023-05-06T20:40:14.146Z,28.07
2023-05-06T20:42:44.164Z,28.05
2023-05-06T20:45:14.574Z,28.09
2023-05-06T20:47:44.692Z,28.06
2023-05-06T20:50:18.068Z,28.06
2023-05-06T20:52:48.581Z,28.05
2023-05-06T20:55:21.761Z,28.05
2023-05-06T20:57:52.062Z,28.01
2023-05-06T21:00:22.654Z,28.02
2023-05-06T21:02:52.769Z,27.99
2023-05-06T21:05:23.045Z,28.00
2023-05-06T21:07:53.147Z,28.00
2023-05-06T21:10:23.659Z,27.99
2023-05-06T21:12:53.807Z,27.98
2023-05-06T21:15:23.920Z,27.98
2023-05-06T21:17:54.465Z,27.97
2023-05-06T21:20:24.514Z,27.95
2023-05-06T21:22:54.592Z,27.92
2023-05-06T21:25:24.666Z,27.95
2023-05-06T21:27:54.660Z,27.95
2023-05-06T21:30:24.699Z,27.95
2023-05-06T21:32:55.176Z,27.93
2023-05-06T21:35:26.271Z,27.94
2023-05-06T21:37:56.311Z,27.89
2023-05-06T21:40:26.339Z,27.84
2023-05-06T21:42:56.544Z,27.84
2023-05-06T21:45:26.822Z,27.83
2023-05-06T21:47:57.132Z,27.81
2023-05-06T21:50:27.205Z,27.79
2023-05-06T21:52:57.235Z,27.75
2023-05-06T21:55:29.071Z,27.74
2023-05-06T21:57:59.124Z,27.72
2023-05-06T22:00:29.561Z,27.71
2023-05-06T22:03:00.210Z,27.71
2023-05-06T22:05:30.182Z,27.68
2023-05-06T22:08:00.283Z,27.68
2023-05-06T22:10:30.337Z,27.63
2023-05-06T22:13:00.863Z,27.62
2023-05-06T22:15:30.908Z,27.62
2023-05-06T22:18:01.039Z,27.57
2023-05-06T22:20:31.967Z,27.57
2023-05-06T22:23:02.050Z,27.56
2023-05-06T22:25:32.060Z,27.54
2023-05-06T22:28:02.156Z,27.52
2023-05-06T22:30:32.289Z,27.50
2023-05-06T22:33:03.518Z,27.48
2023-05-06T22:35:33.550Z,27.48
2023-05-06T22:38:03.547Z,27.46
2023-05-06T22:40:33.545Z,27.44
2023-05-06T22:43:03.577Z,27.44
2023-05-06T22:45:33.968Z,27.42
2023-05-06T22:48:03.994Z,27.41
2023-05-06T22:50:34.294Z,27.39
2023-05-06T22:53:13.616Z,27.39
2023-05-06T22:55:46.795Z,27.39
2023-05-06T22:58:16.922Z,27.39
2023-05-06T23:00:49.177Z,27.36
2023-05-06T23:03:23.745Z,27.51
2023-05-06T23:05:53.988Z,27.75
2023-05-06T23:08:24.110Z,27.96
2023-05-06T23:10:54.434Z,28.19
2023-05-06T23:13:24.576Z,28.39
2023-05-06T23:15:54.780Z,28.56
2023-05-06T23:18:24.804Z,28.72
2023-05-06T23:20:54.785Z,28.86
2023-05-06T23:23:24.864Z,29.01
2023-05-06T23:25:54.846Z,29.12
2023-05-06T23:28:24.972Z,29.24
2023-05-06T23:30:55.460Z,29.35
2023-05-06T23:33:26.055Z,29.47
2023-05-06T23:35:56.162Z,29.56
2023-05-06T23:38:26.744Z,29.64
2023-05-06T23:40:57.119Z,29.75
2023-05-06T23:43:27.324Z,29.82
2023-05-06T23:45:57.943Z,29.90
2023-05-06T23:48:28.192Z,29.96
2023-05-06T23:50:58.737Z,30.11
2023-05-06T23:53:28.718Z,30.25
2023-05-06T23:55:58.796Z,30.40
2023-05-06T23:58:28.926Z,30.51
